Time;durP1;ratioP1;P1;durP2;ratioP2;P2;SDS_P1;SDS_P2;PMS_P1;PMS_P2;Temp;Humidity;BMP_temperature;BMP_pressure;BME280_temperature;BME280_humidity;BME280_pressure;Samples;Min_cycle;Max_cycle;Signal;HPM_P1;HPM_P2
2021/04/11 00:02:24;;;;;;;2.13;1.90;;;;;;;12.06;63.24;154457.84;5033085;28;20457;-88
2021/04/11 00:04:59;;;;;;;2.13;1.93;;;;;;;12.03;63.89;154448.75;5037202;28;20551;-88
2021/04/11 00:07:34;;;;;;;7.43;2.60;;;;;;;11.96;62.04;154430.63;5051534;28;21170;-88
2021/04/11 00:10:14;;;;;;;2.40;1.80;;;;;;;11.90;62.58;154416.38;5051818;28;20448;-88
2021/04/11 00:12:49;;;;;;;1.87;1.77;;;;;;;11.88;62.40;154411.19;5053572;28;20456;-88
2021/04/11 00:15:26;;;;;;;2.30;1.63;;;;;;;11.82;64.87;154395.63;5053314;28;20452;-88
2021/04/11 00:18:01;;;;;;;2.93;1.80;;;;;;;11.76;63.67;154380.06;5064824;28;20461;-87
2021/04/11 00:20:36;;;;;;;2.63;1.90;;;;;;;11.72;64.96;154368.41;5053069;28;20480;-88
2021/04/11 00:23:11;;;;;;;1.53;1.43;;;;;;;11.70;64.70;154364.53;5037993;28;20452;-87
2021/04/11 00:25:46;;;;;;;2.17;1.70;;;;;;;11.62;67.18;154343.75;5047128;28;20858;-87
2021/04/11 00:28:22;;;;;;;2.33;1.50;;;;;;;11.56;62.78;154328.19;5063755;28;20448;-88
2021/04/11 00:30:58;;;;;;;3.47;1.60;;;;;;;11.53;65.00;154321.72;5057176;28;20448;-87
2021/04/11 00:33:35;;;;;;;2.80;2.60;;;;;;;11.52;67.03;154317.81;5054694;28;20444;-87
2021/04/11 00:36:13;;;;;;;2.20;1.97;;;;;;;11.47;63.85;154304.84;5048917;28;20810;-88
2021/04/11 00:38:48;;;;;;;1.93;1.77;;;;;;;11.43;63.24;154294.50;5049858;28;20539;-87
2021/04/11 00:41:26;;;;;;;2.00;1.80;;;;;;;11.40;64.38;154286.72;5043192;28;20535;-87
2021/04/11 00:44:03;;;;;;;2.00;1.80;;;;;;;11.36;66.81;154276.34;5065248;28;20809;-87
2021/04/11 00:46:43;;;;;;;2.00;1.70;;;;;;;11.31;67.86;154263.38;5049685;28;20507;-88
2021/04/11 00:49:22;;;;;;;2.00;1.80;;;;;;;11.27;68.03;154253.03;5061297;28;20465;-88
2021/04/11 00:51:57;;;;;;;2.00;1.80;;;;;;;11.23;65.45;154242.66;5048311;28;20448;-87
2021/04/11 00:54:33;;;;;;;3.60;1.83;;;;;;;11.20;63.14;154236.19;5061408;28;20448;-87
2021/04/11 00:57:09;;;;;;;1.97;1.70;;;;;;;11.19;61.26;154232.31;5043542;28;20454;-88
2021/04/11 00:59:44;;;;;;;1.97;1.33;;;;;;;11.17;64.79;154228.44;5059599;28;20487;-88
2021/04/11 01:02:20;;;;;;;2.27;1.80;;;;;;;11.13;64.13;154218.06;5043558;28;20548;-88
2021/04/11 01:04:56;;;;;;;2.07;1.87;;;;;;;11.08;64.22;154203.81;5065090;28;20474;-88
2021/04/11 01:07:31;;;;;;;2.27;2.07;;;;;;;11.04;65.20;154194.72;5048421;28;20459;-88
2021/04/11 01:10:09;;;;;;;2.00;1.80;;;;;;;11.00;64.02;154184.38;5045613;28;20441;-87
2021/04/11 01:12:45;;;;;;;2.90;1.70;;;;;;;10.98;63.49;154180.53;5024298;28;20454;-87
2021/04/11 01:15:24;;;;;;;3.13;2.40;;;;;;;10.94;63.34;154170.13;5049109;28;20921;-87
2021/04/11 01:18:00;;;;;;;2.47;2.00;;;;;;;10.89;63.97;154157.19;5044550;28;20451;-87
2021/04/11 01:20:36;;;;;;;2.73;2.13;;;;;;;10.88;67.36;154153.31;5036192;28;20455;-87
2021/04/11 01:23:25;;;;;;;1.63;1.47;;;;;;;10.83;66.69;154141.63;5026895;28;20441;-87
2021/04/11 01:26:03;;;;;;;2.20;1.83;;;;;;;10.76;65.42;154122.22;5065105;28;20462;-87
2021/04/11 01:28:40;;;;;;;4.63;3.00;;;;;;;10.74;66.60;154118.34;5061704;28;20456;-87
2021/04/11 01:31:17;;;;;;;6.30;2.20;;;;;;;10.71;66.26;154110.56;5036931;28;20850;-87
2021/04/11 01:33:53;;;;;;;2.00;1.63;;;;;;;10.68;67.32;154102.78;5040233;28;20431;-87
2021/04/11 01:36:34;;;;;;;2.53;1.80;;;;;;;10.66;66.51;154097.63;5036358;28;20521;-87
2021/04/11 01:39:13;;;;;;;2.97;1.93;;;;;;;10.68;65.25;154102.78;5033800;28;21242;-87
2021/04/11 01:41:51;;;;;;;2.23;1.70;;;;;;;10.69;64.80;154104.09;5048461;28;20529;-87
2021/04/11 01:44:28;;;;;;;2.30;1.90;;;;;;;10.68;65.20;154102.78;5048486;28;20476;-87
2021/04/11 01:47:05;;;;;;;1.63;1.47;;;;;;;10.73;63.14;154115.75;5031876;28;20445;-87
2021/04/11 01:49:46;;;;;;;1.70;1.60;;;;;;;10.76;66.83;154123.53;5047867;28;20537;-87
2021/04/11 01:52:24;;;;;;;1.97;1.87;;;;;;;10.79;66.06;154131.28;5036681;28;20434;-87
2021/04/11 01:55:01;;;;;;;1.97;1.60;;;;;;;10.80;64.27;154132.59;5035391;28;20458;-87
2021/04/11 01:57:41;;;;;;;1.67;1.50;;;;;;;10.83;65.66;154140.31;5035834;28;20445;-87
2021/04/11 02:00:25;;;;;;;1.70;1.60;;;;;;;10.82;64.42;154137.78;5023743;28;20483;-87
2021/04/11 02:03:10;;;;;;;2.70;1.93;;;;;;;10.79;68.87;154131.28;5039999;28;20451;-87
2021/04/11 02:05:47;;;;;;;2.70;2.10;;;;;;;10.82;69.72;154139.06;5056713;28;20462;-87
2021/04/11 02:08:25;;;;;;;2.40;1.90;;;;;;;10.81;66.79;154136.47;5036896;28;20822;-88
2021/04/11 02:11:04;;;;;;;1.80;1.70;;;;;;;10.84;66.49;154142.94;5030554;28;20428;-87
2021/04/11 02:13:43;;;;;;;2.30;2.10;;;;;;;10.86;70.47;154148.09;5047376;28;21004;-87
2021/04/11 02:16:28;;;;;;;2.17;1.63;;;;;;;10.80;68.62;154133.84;5051585;28;20455;-87
2021/04/11 02:19:05;;;;;;;2.27;1.97;;;;;;;10.80;68.99;154132.59;5031499;28;20460;-88
2021/04/11 02:21:41;;;;;;;5.27;2.90;;;;;;;10.78;70.77;154127.38;5045318;28;20447;-87
2021/04/11 02:24:16;;;;;;;2.30;1.87;;;;;;;10.79;70.23;154130.00;5050854;28;20463;-87
2021/04/11 02:26:53;;;;;;;2.10;1.90;;;;;;;10.80;70.12;154133.84;5046767;28;20444;-87
2021/04/11 02:29:30;;;;;;;2.33;2.13;;;;;;;10.80;72.95;154133.84;5047318;28;20436;-87
2021/04/11 02:32:06;;;;;;;2.87;2.57;;;;;;;10.77;73.65;154124.81;5048250;28;20464;-87
2021/04/11 02:34:43;;;;;;;2.20;2.00;;;;;;;10.75;73.20;154119.66;5062863;28;20446;-87
2021/04/11 02:37:21;;;;;;;2.53;2.07;;;;;;;10.74;73.43;154117.03;5051390;28;20451;-87
2021/04/11 02:39:59;;;;;;;2.30;2.07;;;;;;;10.75;72.67;154120.91;5035990;28;20833;-88
2021/04/11 02:42:35;;;;;;;2.67;2.47;;;;;;;10.72;73.93;154113.13;5036072;28;20455;-87
2021/04/11 02:45:14;;;;;;;5.43;2.40;;;;;;;10.73;74.94;154115.75;5035143;28;20472;-87
2021/04/11 02:47:55;;;;;;;2.87;2.60;;;;;;;10.70;71.49;154107.97;5051513;28;20458;-87
2021/04/11 02:50:33;;;;;;;2.53;2.00;;;;;;;10.73;72.58;154115.75;5051643;28;20536;-87
2021/04/11 02:53:13;;;;;;;3.50;2.00;;;;;;;10.69;69.18;154104.09;5042888;28;20538;-87
2021/04/11 02:55:48;;;;;;;2.37;2.00;;;;;;;10.70;69.44;154107.97;5050613;28;20842;-87
2021/04/11 02:58:25;;;;;;;3.33;2.10;;;;;;;10.71;72.90;154110.56;5053781;28;20939;-87
2021/04/11 03:01:05;;;;;;;2.90;1.70;;;;;;;10.70;70.25;154106.66;5071290;28;20479;-87
2021/04/11 03:03:41;;;;;;;2.63;1.80;;;;;;;10.69;68.06;154105.41;5032334;28;20446;-87
2021/04/11 03:06:19;;;;;;;2.60;1.93;;;;;;;10.72;66.53;154113.13;5067336;28;20568;-87
2021/04/11 03:08:57;;;;;;;2.20;1.83;;;;;;;10.72;66.13;154113.13;5050848;28;20791;-87
2021/04/11 03:11:42;;;;;;;2.20;1.80;;;;;;;10.76;63.55;154123.53;5052814;28;20541;-87
2021/04/11 03:14:24;;;;;;;2.53;1.87;;;;;;;10.80;63.46;154133.84;5059226;28;20833;-87
2021/04/11 03:17:04;;;;;;;2.10;1.60;;;;;;;10.77;64.25;154126.13;5052040;28;20486;-87
2021/04/11 03:19:42;;;;;;;2.90;1.97;;;;;;;10.75;64.88;154120.91;5048954;28;20905;-87
2021/04/11 03:22:18;;;;;;;1.80;1.70;;;;;;;10.75;64.04;154120.91;5045585;28;20463;-87
2021/04/11 03:24:54;;;;;;;2.70;1.93;;;;;;;10.79;62.69;154131.28;5043336;28;20470;-87
2021/04/11 03:27:36;;;;;;;1.83;1.70;;;;;;;10.85;63.32;154146.84;5083442;28;20453;-86
2021/04/11 03:30:16;;;;;;;2.27;1.97;;;;;;;10.83;64.13;154141.63;5055585;28;20435;-87
2021/04/11 03:32:57;;;;;;;2.70;2.00;;;;;;;10.82;63.30;154137.78;5041344;28;20919;-87
2021/04/11 03:35:35;;;;;;;2.30;2.10;;;;;;;10.84;63.38;154144.25;5053504;28;20538;-87
2021/04/11 03:38:11;;;;;;;2.75;1.85;;;;;;;10.86;63.72;154149.41;5042173;28;20456;-87
2021/04/11 03:40:51;;;;;;;2.40;1.60;;;;;;;10.84;62.64;154144.25;5048707;28;20204;-87
2021/04/11 03:43:31;;;;;;;1.80;1.70;;;;;;;10.81;66.54;154136.47;5043508;28;20451;-87
2021/04/11 03:46:11;;;;;;;3.10;1.67;;;;;;;10.78;67.13;154128.69;5066108;28;20480;-87
2021/04/11 03:48:51;;;;;;;1.77;1.67;;;;;;;10.73;70.82;154115.75;5038404;28;20545;-87
2021/04/11 03:51:28;;;;;;;3.00;2.17;;;;;;;10.69;67.19;154105.41;5035396;28;20973;-87
2021/04/11 03:54:10;;;;;;;2.10;1.90;;;;;;;10.67;65.12;154100.19;5060114;28;20453;-87
2021/04/11 03:56:48;;;;;;;2.30;2.10;;;;;;;10.66;64.79;154097.63;5045801;28;20465;-88
2021/04/11 03:59:26;;;;;;;2.77;1.80;;;;;;;10.65;65.36;154095.03;5026177;28;20460;-87
2021/04/11 04:02:03;;;;;;;2.23;2.03;;;;;;;10.67;65.61;154100.19;5035809;28;20818;-87
2021/04/11 04:04:43;;;;;;;2.63;2.10;;;;;;;10.62;66.89;154087.25;5035045;28;20860;-88
2021/04/11 04:07:20;;;;;;;2.13;1.90;;;;;;;10.60;65.90;154082.06;5044391;28;20481;-88
2021/04/11 04:10:04;;;;;;;3.67;1.90;;;;;;;10.64;64.92;154092.47;5050625;28;20437;-87
2021/04/11 04:13:08;;;;;;;5.80;2.27;;;;;;;10.65;65.93;154093.72;5054271;28;20534;-87
2021/04/11 04:16:05;;;;;;;4.57;2.10;;;;;;;10.68;68.01;154102.78;5062117;28;20832;-87
2021/04/11 04:18:57;;;;;;;2.37;1.73;;;;;;;10.67;66.60;154100.19;5052063;28;20529;-87
2021/04/11 04:21:45;;;;;;;2.30;1.77;;;;;;;10.67;68.63;154100.19;5070209;28;20474;-87
2021/04/11 04:24:31;;;;;;;2.37;2.00;;;;;;;10.66;66.63;154097.63;5053260;28;20468;-87
2021/04/11 04:27:28;;;;;;;2.13;1.90;;;;;;;10.65;67.67;154093.72;5060709;28;20483;-87
2021/04/11 04:30:14;;;;;;;4.23;2.07;;;;;;;10.63;71.02;154088.56;5025927;28;20488;-87
2021/04/11 04:33:11;;;;;;;2.70;2.10;;;;;;;10.61;68.82;154084.69;5034793;28;20852;-87
2021/04/11 04:35:49;;;;;;;3.03;2.70;;;;;;;10.57;68.52;154073.00;5067530;28;20456;-87
2021/04/11 04:38:29;;;;;;;2.30;2.00;;;;;;;10.56;69.84;154071.75;5052779;28;20827;-87
2021/04/11 04:41:11;;;;;;;2.33;2.13;;;;;;;10.55;68.59;154069.13;5046207;28;20543;-87
2021/04/11 04:43:53;;;;;;;2.50;2.00;;;;;;;10.56;69.73;154070.44;5048496;28;20448;-87
2021/04/11 04:46:37;;;;;;;2.80;2.30;;;;;;;10.53;68.02;154063.97;5052638;28;20479;-87
2021/04/11 04:49:17;;;;;;;2.93;1.93;;;;;;;10.54;70.43;154065.28;5054074;28;20467;-87
2021/04/11 04:51:55;;;;;;;2.53;2.20;;;;;;;10.53;71.30;154062.66;5037115;28;20459;-87
2021/04/11 04:54:36;;;;;;;2.50;1.97;;;;;;;10.53;74.17;154062.66;5067791;28;20443;-87
2021/04/11 04:57:17;;;;;;;2.30;2.10;;;;;;;10.51;70.06;154058.75;5037386;28;20461;-87
2021/04/11 05:00:04;;;;;;;4.00;2.53;;;;;;;10.53;70.83;154062.66;5060419;28;20868;-87
2021/04/11 05:02:50;;;;;;;2.80;2.10;;;;;;;10.52;69.69;154061.34;5048805;28;20469;-87
2021/04/11 05:05:27;;;;;;;2.23;2.03;;;;;;;10.52;69.94;154061.34;5036197;28;20465;-79
2021/04/11 05:08:07;;;;;;;2.60;2.03;;;;;;;10.51;68.82;154058.75;5051542;28;20447;-79
2021/04/11 05:10:46;;;;;;;3.07;2.33;;;;;;;10.51;69.96;154058.75;5050980;28;20476;-79
2021/04/11 05:13:33;;;;;;;2.40;2.17;;;;;;;10.49;69.79;154053.59;5050929;28;20442;-79
2021/04/11 05:16:16;;;;;;;3.70;2.37;;;;;;;10.51;70.03;154058.75;5051600;28;20463;-79
2021/04/11 05:18:58;;;;;;;2.55;2.05;;;;;;;10.51;69.23;154058.75;5034714;28;20445;-79
2021/04/11 05:21:46;;;;;;;3.27;2.80;;;;;;;10.52;71.53;154060.06;5031705;28;20213;-79
2021/04/11 05:24:23;;;;;;;4.37;2.67;;;;;;;10.52;69.46;154060.06;5051616;28;20433;-79
2021/04/11 05:27:04;;;;;;;3.17;2.73;;;;;;;10.57;72.25;154074.31;5035529;28;20871;-79
2021/04/11 05:29:51;;;;;;;3.40;3.10;;;;;;;10.57;70.04;154074.31;5050158;28;20449;-79
2021/04/11 05:32:25;;;;;;;4.00;3.50;;;;;;;10.57;69.84;154073.00;5028021;28;20487;-79
2021/04/11 05:35:01;;;;;;;2.80;2.60;;;;;;;10.59;68.71;154079.47;5059801;28;20454;-79
2021/04/11 05:37:41;;;;;;;3.83;3.50;;;;;;;10.63;70.09;154088.56;5043918;28;20848;-79
2021/04/11 05:40:18;;;;;;;3.73;3.00;;;;;;;10.66;70.49;154096.31;5045701;28;20544;-79
2021/04/11 05:42:56;;;;;;;2.70;2.50;;;;;;;10.68;68.32;154102.78;5050934;28;20877;-79
2021/04/11 05:45:36;;;;;;;3.50;3.20;;;;;;;10.71;67.06;154109.28;5051600;28;20460;-79
2021/04/11 05:48:18;;;;;;;3.10;2.80;;;;;;;10.72;67.30;154113.13;5035543;28;20447;-78
2021/04/11 05:51:00;;;;;;;3.33;3.03;;;;;;;10.76;67.62;154123.53;5050708;28;20445;-78
2021/04/11 05:53:37;;;;;;;3.20;2.70;;;;;;;10.80;68.40;154133.84;5050374;28;20951;-78
2021/04/11 05:56:22;;;;;;;3.40;3.10;;;;;;;10.86;70.43;154149.41;5047103;28;20555;-78
2021/04/11 05:58:59;;;;;;;2.57;2.37;;;;;;;10.90;68.82;154159.78;5058598;28;20777;-78
2021/04/11 06:01:38;;;;;;;3.50;2.90;;;;;;;10.93;68.70;154167.53;5044888;28;20496;-79
2021/04/11 06:04:17;;;;;;;2.77;2.27;;;;;;;10.98;68.54;154180.53;5066513;28;20447;-78
2021/04/11 06:06:55;;;;;;;2.30;2.10;;;;;;;11.05;69.11;154196.03;5049606;28;20471;-78
2021/04/11 06:09:34;;;;;;;2.50;2.27;;;;;;;11.10;68.69;154208.97;5051140;28;20833;-78
2021/04/11 06:12:14;;;;;;;3.27;2.30;;;;;;;11.15;68.33;154221.94;5052485;28;20434;-78
2021/04/11 06:14:54;;;;;;;2.03;1.70;;;;;;;11.19;69.12;154233.63;5049253;28;20450;-80
2021/04/11 06:17:30;;;;;;;5.13;2.33;;;;;;;11.24;69.94;154245.25;5048530;28;20773;-79
2021/04/11 06:20:06;;;;;;;3.30;2.17;;;;;;;11.29;69.46;154258.22;5047613;28;20530;-80
2021/04/11 06:22:44;;;;;;;2.80;2.20;;;;;;;11.34;67.88;154271.16;5042763;28;20442;-78
2021/04/11 06:25:26;;;;;;;2.63;2.00;;;;;;;11.41;68.29;154289.34;5057054;28;20505;-78
2021/04/11 06:28:09;;;;;;;2.70;1.80;;;;;;;11.48;67.71;154307.47;5059819;28;20444;-78
2021/04/11 06:30:52;;;;;;;1.87;1.77;;;;;;;11.54;65.97;154324.28;5051595;28;20455;-78
2021/04/11 06:33:30;;;;;;;2.50;2.10;;;;;;;11.65;64.98;154350.22;5041849;28;20447;-78
2021/04/11 06:36:08;;;;;;;2.95;1.90;;;;;;;11.85;62.94;154403.41;5048910;28;20502;-78
2021/04/11 06:38:45;;;;;;;2.10;1.90;;;;;;;11.96;62.15;154431.94;5076524;28;20210;-78
2021/04/11 06:41:29;;;;;;;3.03;2.40;;;;;;;11.99;61.67;154438.41;5053909;28;20203;-78
2021/04/11 06:44:18;;;;;;;2.43;2.23;;;;;;;12.10;61.77;154466.88;5054920;28;20440;-78
2021/04/11 06:47:10;;;;;;;4.23;2.53;;;;;;;12.43;61.09;154551.19;5051483;28;20496;-78
2021/04/11 06:50:34;;;;;;;2.20;2.00;;;;;;;12.80;61.47;154647.16;5054317;28;20555;-78
2021/04/11 06:53:46;;;;;;;3.07;2.40;;;;;;;13.08;59.43;154718.56;4949613;28;20833;-78
2021/04/11 06:56:36;;;;;;;3.70;2.40;;;;;;;13.47;59.07;154818.47;5067394;28;20490;-78
2021/04/11 06:59:25;;;;;;;3.03;2.73;;;;;;;13.75;58.69;154891.13;5039238;28;20480;-78
2021/04/11 07:02:14;;;;;;;2.83;2.30;;;;;;;14.02;58.88;154962.56;5053044;28;20481;-78
2021/04/11 07:05:10;;;;;;;3.23;2.43;;;;;;;14.25;56.63;155020.94;5047162;28;20467;-78
2021/04/11 07:08:23;;;;;;;2.67;2.37;;;;;;;14.53;54.96;155092.47;5047716;28;20455;-78
2021/04/11 07:11:28;;;;;;;3.03;2.73;;;;;;;14.92;55.05;155192.47;5050873;28;20455;-78
2021/04/11 07:14:42;;;;;;;3.63;2.67;;;;;;;15.37;54.38;155308.09;5051104;28;20440;-78
2021/04/11 07:17:31;;;;;;;2.83;2.63;;;;;;;15.83;52.67;155429.03;5054528;28;20544;-78
2021/04/11 07:20:27;;;;;;;3.20;2.23;;;;;;;15.83;52.51;155429.03;5050134;28;20445;-79
2021/04/11 07:23:20;;;;;;;3.00;1.90;;;;;;;15.77;52.09;155413.47;5048363;28;20465;-79
2021/04/11 07:26:20;;;;;;;4.00;2.20;;;;;;;15.83;51.26;155429.03;5050304;28;20481;-78
2021/04/11 07:29:04;;;;;;;2.90;2.53;;;;;;;15.80;51.35;155421.25;5032468;28;20491;-78
2021/04/11 07:32:08;;;;;;;3.93;2.27;;;;;;;16.03;52.04;155478.44;5049811;28;20454;-79
2021/04/11 07:34:51;;;;;;;3.77;2.37;;;;;;;16.30;49.63;155548.66;5066522;28;20852;-79
2021/04/11 07:37:35;;;;;;;2.50;2.20;;;;;;;16.71;48.57;155655.34;5034549;28;20538;-79
2021/04/11 07:40:19;;;;;;;2.27;1.90;;;;;;;16.65;48.62;155638.47;5046336;28;20462;-79
2021/04/11 07:43:17;;;;;;;3.33;1.73;;;;;;;16.64;50.50;155637.16;5050630;28;20834;-78
2021/04/11 07:46:11;;;;;;;2.50;2.07;;;;;;;16.66;49.81;155641.03;5048672;28;20472;-78
2021/04/11 07:48:55;;;;;;;2.67;2.20;;;;;;;16.49;50.02;155598.09;5073143;28;20460;-78
2021/04/11 07:51:47;;;;;;;3.03;2.10;;;;;;;16.49;48.69;155598.09;5048804;28;20458;-78
2021/04/11 07:54:31;;;;;;;2.03;1.83;;;;;;;16.71;48.10;155654.03;5044905;28;20464;-78
2021/04/11 07:57:16;;;;;;;2.60;1.83;;;;;;;16.69;48.12;155648.84;5063364;28;20449;-78
2021/04/11 08:00:15;;;;;;;6.80;2.10;;;;;;;16.73;48.16;155660.53;5048818;28;20611;-78
2021/04/11 08:03:17;;;;;;;2.30;2.10;;;;;;;16.93;48.31;155712.63;5066135;28;20867;-78
2021/04/11 08:06:30;;;;;;;2.73;1.90;;;;;;;17.30;47.32;155806.28;5052465;28;20476;-79
2021/04/11 08:09:18;;;;;;;2.20;1.80;;;;;;;17.76;46.76;155926.13;5051661;28;20435;-78
2021/04/11 08:12:16;;;;;;;4.90;2.40;;;;;;;17.98;46.05;155983.38;5049565;28;20261;-78
2021/04/11 08:14:56;;;;;;;1.83;1.73;;;;;;;18.38;45.38;156084.97;5025044;28;20471;-78
2021/04/11 08:17:47;;;;;;;3.70;2.30;;;;;;;18.44;46.42;156100.59;5066969;28;20957;-78
2021/04/11 08:20:33;;;;;;;2.33;2.13;;;;;;;18.50;45.24;156117.59;5050515;28;20467;-78
2021/04/11 08:23:56;;;;;;;2.40;2.00;;;;;;;18.39;45.37;156087.59;5046940;28;21355;-78
2021/04/11 08:27:07;;;;;;;2.40;2.17;;;;;;;18.43;45.39;156097.97;5032377;28;20488;-77
2021/04/11 08:29:51;;;;;;;2.97;2.10;;;;;;;18.57;44.95;156134.53;5064965;28;20986;-79
2021/04/11 08:32:57;;;;;;;5.53;1.80;;;;;;;18.51;45.17;156120.19;5062202;28;20467;-78
2021/04/11 08:35:47;;;;;;;2.20;1.80;;;;;;;18.42;45.41;156095.41;5047667;28;20454;-79
2021/04/11 08:38:42;;;;;;;2.30;1.90;;;;;;;18.64;46.61;156154.06;5045843;28;20443;-79
2021/04/11 08:41:55;;;;;;;3.27;2.00;;;;;;;18.98;45.12;156241.38;5031968;28;20455;-79
2021/04/11 08:44:39;;;;;;;2.97;1.90;;;;;;;19.27;44.99;156315.66;5012042;28;20439;-79
2021/04/11 08:47:23;;;;;;;2.83;2.20;;;;;;;19.52;43.67;156380.84;5055968;28;20867;-79
2021/04/11 08:50:00;;;;;;;2.03;1.83;;;;;;;19.55;43.36;156388.69;5032017;28;20459;-79
2021/04/11 08:52:42;;;;;;;1.77;1.50;;;;;;;19.31;43.24;156327.38;5048254;28;20439;-79
2021/04/11 08:55:25;;;;;;;4.23;1.73;;;;;;;18.92;45.26;156225.72;5047679;28;20442;-79
2021/04/11 08:58:07;;;;;;;1.50;1.10;;;;;;;18.89;44.76;156216.59;5042566;28;20452;-79
2021/04/11 09:00:48;;;;;;;1.83;1.20;;;;;;;18.61;47.44;156144.97;5052892;28;20482;-79
2021/04/11 09:03:34;;;;;;;2.30;1.50;;;;;;;18.64;49.20;156152.75;5048446;28;20450;-79
2021/04/11 09:06:17;;;;;;;2.10;1.70;;;;;;;18.64;46.62;156152.75;5056710;28;20871;-86
2021/04/11 09:09:03;;;;;;;1.90;1.20;;;;;;;18.51;46.43;156118.88;5046783;28;20518;-86
2021/04/11 09:11:43;;;;;;;1.97;1.30;;;;;;;18.32;51.59;156069.38;5051563;28;20539;-87
2021/04/11 09:14:29;;;;;;;2.40;1.33;;;;;;;18.23;54.77;156048.53;5053548;28;20466;-85
2021/04/11 09:17:15;;;;;;;1.40;1.30;;;;;;;18.12;47.73;156018.56;5053171;28;20934;-87
2021/04/11 09:19:55;;;;;;;1.50;1.30;;;;;;;18.09;47.61;156012.03;5037971;28;20444;-87
2021/04/11 09:22:44;;;;;;;2.07;1.40;;;;;;;18.16;48.74;156030.25;5059903;28;20458;-86
2021/04/11 09:25:23;;;;;;;1.83;1.20;;;;;;;18.07;48.27;156005.53;5035773;28;20439;-85
2021/04/11 09:28:16;;;;;;;1.97;1.50;;;;;;;17.98;48.31;155983.38;5051876;28;20537;-86
2021/04/11 09:31:28;;;;;;;1.70;1.43;;;;;;;17.92;49.15;155967.78;5050524;28;20447;-86
2021/04/11 09:34:43;;;;;;;3.00;1.50;;;;;;;17.90;47.62;155962.56;5057870;28;20473;-86
2021/04/11 09:37:32;;;;;;;2.10;1.60;;;;;;;17.91;47.48;155963.88;5046455;28;20949;-85
2021/04/11 09:40:14;;;;;;;2.50;1.60;;;;;;;17.84;46.99;155945.66;5041359;28;20443;-86
2021/04/11 09:43:35;;;;;;;2.53;1.30;;;;;;;17.84;46.40;155946.97;5068621;28;20434;-86
2021/04/11 09:46:36;;;;;;;1.70;1.40;;;;;;;18.00;46.63;155988.59;5034304;28;20475;-86
2021/04/11 09:49:31;;;;;;;2.23;1.50;;;;;;;18.01;53.60;155991.22;5035685;28;20220;-86
2021/04/11 09:52:19;;;;;;;2.30;1.60;;;;;;;18.01;50.04;155991.22;5043583;28;20447;-88
2021/04/11 09:55:04;;;;;;;2.67;1.67;;;;;;;18.09;49.40;156012.03;5047957;28;21138;-87
2021/04/11 09:58:05;;;;;;;3.70;1.30;;;;;;;18.11;48.55;156015.94;5054904;28;20455;-87
2021/04/11 10:00:42;;;;;;;2.70;1.67;;;;;;;18.27;47.99;156058.91;5055144;28;20461;-86
2021/04/11 10:03:28;;;;;;;2.80;1.30;;;;;;;18.39;48.01;156087.59;5054398;28;20560;-87
2021/04/11 10:06:14;;;;;;;1.93;1.37;;;;;;;18.47;45.78;156108.44;5060024;28;20485;-87
2021/04/11 10:09:09;;;;;;;2.60;1.30;;;;;;;18.51;47.10;156118.88;5073506;28;20435;-87
2021/04/11 10:11:58;;;;;;;4.60;1.50;;;;;;;18.64;45.69;156152.75;5060199;28;20847;-87
2021/04/11 10:14:55;;;;;;;1.63;1.50;;;;;;;18.66;54.81;156158.00;5060757;28;20952;-87
2021/04/11 10:17:40;;;;;;;2.10;1.90;;;;;;;18.70;50.28;156168.38;5077917;28;20453;-85
2021/04/11 10:20:18;;;;;;;2.50;2.00;;;;;;;18.85;44.47;156207.47;5045559;28;20438;-87
2021/04/11 10:22:59;;;;;;;3.60;1.70;;;;;;;19.00;44.22;156246.59;5077831;28;20429;-87
2021/04/11 10:25:37;;;;;;;2.50;1.60;;;;;;;18.96;42.74;156234.81;5078791;28;20493;-87
2021/04/11 10:28:18;;;;;;;1.40;1.30;;;;;;;19.00;42.74;156246.59;5061337;28;20861;-87
2021/04/11 10:30:58;;;;;;;1.83;1.73;;;;;;;19.01;43.67;156249.16;5058658;28;20445;-86
2021/04/11 10:33:40;;;;;;;2.13;1.63;;;;;;;19.17;44.21;156290.88;5079337;28;20442;-87
2021/04/11 10:36:18;;;;;;;1.63;1.53;;;;;;;19.29;45.16;156322.16;5075771;28;20544;-86
2021/04/11 10:39:00;;;;;;;2.53;1.93;;;;;;;19.47;46.55;156367.81;5049466;28;21009;-87
2021/04/11 10:41:45;;;;;;;2.67;1.60;;;;;;;19.60;50.14;156400.41;5067590;28;20446;-87
2021/04/11 10:44:36;;;;;;;1.60;1.47;;;;;;;19.57;45.31;156393.88;5078106;28;20450;-87
2021/04/11 10:47:23;;;;;;;2.03;1.83;;;;;;;19.39;47.47;156348.28;5056707;28;20510;-87
2021/04/11 10:50:06;;;;;;;1.63;1.40;;;;;;;19.44;45.33;156361.31;5057413;28;20443;-87
2021/04/11 10:52:58;;;;;;;2.63;1.57;;;;;;;19.54;49.24;156386.06;5041394;28;20469;-87
2021/04/11 10:55:44;;;;;;;2.37;1.83;;;;;;;19.52;43.60;156379.53;5055723;28;20438;-86
2021/04/11 10:59:07;;;;;;;1.90;1.70;;;;;;;19.40;42.92;156349.59;5045485;28;20909;-86
2021/04/11 11:02:06;;;;;;;1.50;1.30;;;;;;;19.38;45.04;156345.66;4997472;28;20449;-86
2021/04/11 11:05:08;;;;;;;2.03;1.47;;;;;;;19.40;50.90;156350.91;4981099;28;21181;-86
2021/04/11 11:07:56;;;;;;;1.77;1.67;;;;;;;19.39;48.58;156346.97;5074079;28;20438;-86
2021/04/11 11:10:45;;;;;;;1.50;1.40;;;;;;;19.34;44.47;156333.88;5057831;28;20439;-87
2021/04/11 11:13:37;;;;;;;2.87;1.57;;;;;;;19.21;45.28;156301.31;5057593;28;20450;-86
2021/04/11 11:16:46;;;;;;;2.23;2.00;;;;;;;19.05;47.58;156259.59;5061790;28;20470;-85
2021/04/11 11:19:37;;;;;;;1.60;1.50;;;;;;;19.04;53.72;156255.66;5029337;28;20925;-86
2021/04/11 11:22:42;;;;;;;2.00;1.80;;;;;;;19.00;45.07;156245.28;5075012;28;20540;-86
2021/04/11 11:25:26;;;;;;;2.00;1.80;;;;;;;18.99;46.32;156243.97;5074385;28;20434;-86
2021/04/11 11:28:27;;;;;;;1.97;1.63;;;;;;;19.00;43.63;156246.59;5042180;28;20450;-86
2021/04/11 11:31:25;;;;;;;4.00;2.00;;;;;;;18.88;54.82;156214.03;5052739;28;20458;-86
2021/04/11 11:34:23;;;;;;;1.70;1.60;;;;;;;18.94;44.75;156229.63;5054930;28;21008;-87
2021/04/11 11:37:11;;;;;;;2.37;1.83;;;;;;;18.77;46.38;156186.66;5021544;28;20443;-86
2021/04/11 11:39:49;;;;;;;2.83;2.17;;;;;;;18.72;55.83;156173.59;5058395;28;20446;-86
2021/04/11 11:42:31;;;;;;;2.20;1.77;;;;;;;18.76;47.49;156184.03;5053986;28;20989;-86
2021/04/11 11:45:11;;;;;;;2.17;1.90;;;;;;;18.75;48.14;156181.41;5039522;28;20438;-86
2021/04/11 11:47:58;;;;;;;2.30;2.10;;;;;;;18.76;47.18;156184.03;5053413;28;20442;-88
2021/04/11 11:50:37;;;;;;;2.50;2.30;;;;;;;18.83;46.84;156203.56;5064315;28;20426;-88
2021/04/11 11:53:18;;;;;;;2.30;2.10;;;;;;;18.79;55.79;156191.84;5038119;28;20467;-88
2021/04/11 11:56:04;;;;;;;3.80;2.30;;;;;;;18.85;44.04;156207.47;5059849;28;20449;-87
2021/04/11 11:58:43;;;;;;;2.27;2.07;;;;;;;18.85;43.73;156208.78;5084931;28;20439;-88
2021/04/11 12:01:26;;;;;;;3.40;2.00;;;;;;;19.06;48.20;156260.91;5070612;28;20434;-87
2021/04/11 12:04:15;;;;;;;2.03;1.83;;;;;;;19.21;49.13;156301.31;5063390;28;20815;-88
2021/04/11 12:06:53;;;;;;;3.20;1.93;;;;;;;19.12;52.59;156277.84;5054854;28;20479;-88
2021/04/11 12:09:32;;;;;;;3.00;1.80;;;;;;;19.03;44.95;156254.41;5073224;28;20944;-85
2021/04/11 12:12:11;;;;;;;2.40;2.13;;;;;;;19.08;47.86;156267.44;5055205;28;20446;-86
2021/04/11 12:14:54;;;;;;;1.97;1.70;;;;;;;19.26;48.60;156314.34;5063216;28;20507;-86
2021/04/11 12:17:33;;;;;;;2.60;2.20;;;;;;;19.28;44.27;156318.22;5055639;28;20473;-87
2021/04/11 12:20:14;;;;;;;3.13;2.20;;;;;;;19.31;44.37;156326.06;5074344;28;20457;-86
2021/04/11 12:22:53;;;;;;;2.40;1.90;;;;;;;19.34;45.56;156335.19;5056275;28;20856;-86
2021/04/11 12:25:31;;;;;;;2.87;2.10;;;;;;;19.41;44.02;156352.16;5042230;28;20548;-87
2021/04/11 12:28:15;;;;;;;2.30;2.10;;;;;;;19.60;42.74;156400.41;5063705;28;20533;-86
2021/04/11 12:30:51;;;;;;;1.93;1.53;;;;;;;19.64;41.91;156410.84;5075028;28;20442;-86
2021/04/11 12:33:31;;;;;;;3.30;1.60;;;;;;;19.81;43.97;156456.47;5036407;28;20447;-86
2021/04/11 12:36:09;;;;;;;2.67;2.20;;;;;;;19.75;41.45;156439.56;5055346;28;20504;-85
2021/04/11 12:38:47;;;;;;;2.07;1.87;;;;;;;19.79;41.34;156449.94;5075878;28;20462;-85
2021/04/11 12:41:27;;;;;;;1.43;1.33;;;;;;;19.91;40.35;156481.22;5068242;28;20557;-85
2021/04/11 12:44:09;;;;;;;2.10;1.90;;;;;;;19.82;40.84;156457.78;5054405;28;20913;-86